Time;durP1;ratioP1;P1;durP2;ratioP2;P2;SDS_P1;SDS_P2;PMS_P1;PMS_P2;Temp;Humidity;BMP_temperature;BMP_pressure;BME280_temperature;BME280_humidity;BME280_pressure;Samples;Min_cycle;Max_cycle;Signal;HPM_P1;HPM_P2
2022/05/17 00:01:49;;;;;;;19.33;13.57;;;16.20;99.90;;;;;;5035057;28;20282;-83
2022/05/17 00:04:14;;;;;;;18.10;12.43;;;16.10;99.90;;;;;;5034604;28;20045;-83
2022/05/17 00:06:40;;;;;;;18.38;12.85;;;16.10;99.90;;;;;;5034896;28;20041;-83
2022/05/17 00:09:06;;;;;;;18.70;12.27;;;16.10;99.90;;;;;;5017353;28;20076;-83
2022/05/17 00:11:32;;;;;;;17.45;9.15;;;16.10;99.90;;;;;;5033223;28;20064;-82
2022/05/17 00:13:58;;;;;;;20.13;11.60;;;16.00;99.90;;;;;;5033425;28;20052;-83
2022/05/17 00:16:24;;;;;;;18.60;12.25;;;16.00;99.90;;;;;;5033471;28;20457;-82
2022/05/17 00:18:50;;;;;;;18.48;13.07;;;16.00;99.90;;;;;;5033437;28;20136;-83
2022/05/17 00:21:16;;;;;;;19.00;11.70;;;15.90;99.90;;;;;;5018210;28;20494;-83
2022/05/17 00:23:42;;;;;;;18.70;12.32;;;15.90;99.90;;;;;;5033600;28;20039;-83
2022/05/17 00:26:08;;;;;;;17.65;12.93;;;15.90;99.90;;;;;;5034104;28;20052;-83
2022/05/17 00:28:35;;;;;;;16.40;10.15;;;15.90;99.90;;;;;;5032899;28;20032;-83
2022/05/17 00:31:01;;;;;;;16.83;12.40;;;15.80;99.90;;;;;;5033919;28;20091;-83
2022/05/17 00:33:27;;;;;;;19.08;11.90;;;15.70;99.90;;;;;;5034041;28;20033;-82
2022/05/17 00:35:53;;;;;;;16.60;11.38;;;15.70;99.90;;;;;;5051185;28;20052;-83
2022/05/17 00:38:19;;;;;;;17.60;11.52;;;15.70;99.90;;;;;;5033063;28;20047;-82
2022/05/17 00:40:45;;;;;;;17.67;11.25;;;15.60;99.90;;;;;;5034203;28;20037;-82
2022/05/17 00:43:20;;;;;;;18.48;11.60;;;15.50;99.90;;;;;;5017245;28;20055;-83
2022/05/17 00:45:49;;;;;;;19.65;11.98;;;15.40;99.90;;;;;;5034170;28;20124;-83
2022/05/17 00:48:16;;;;;;;18.80;11.85;;;15.40;99.90;;;;;;5016863;28;20406;-83
2022/05/17 00:50:46;;;;;;;20.30;12.02;;;15.30;99.90;;;;;;5032850;28;20041;-83
2022/05/17 00:53:23;;;;;;;14.48;7.80;;;15.30;99.90;;;;;;5033916;28;20052;-83
2022/05/17 00:55:57;;;;;;;19.77;10.80;;;15.20;99.90;;;;;;5016629;28;20052;-83
2022/05/17 00:58:32;;;;;;;18.70;8.63;;;15.20;99.90;;;;;;5032914;28;20037;-84
2022/05/17 01:01:07;;;;;;;17.92;8.40;;;15.20;99.90;;;;;;5017485;28;20124;-84
2022/05/17 01:03:52;;;;;;;21.95;11.95;;;15.10;99.90;;;;;;5033756;28;20037;-84
2022/05/17 01:06:18;;;;;;;19.35;11.77;;;15.10;99.90;;;;;;5033744;28;20049;-83
2022/05/17 01:08:44;;;;;;;17.67;9.13;;;15.10;99.90;;;;;;5015753;28;20064;-83
2022/05/17 01:11:10;;;;;;;19.50;8.82;;;15.10;99.90;;;;;;5033419;28;20040;-82
2022/05/17 01:16:23;;;;;;;20.15;12.32;;;15.00;99.90;;;;;;5048793;28;20045;-83
2022/05/17 01:18:49;;;;;;;17.73;8.82;;;15.10;99.90;;;;;;5016465;28;20808;-83
2022/05/17 01:21:15;;;;;;;19.00;11.52;;;15.00;99.90;;;;;;5016731;28;20121;-82
2022/05/17 01:23:41;;;;;;;22.50;11.80;;;15.10;99.90;;;;;;5033643;28;20514;-83
2022/05/17 01:26:15;;;;;;;18.25;11.55;;;15.10;99.90;;;;;;5033176;28;20457;-83
2022/05/17 01:28:41;;;;;;;18.75;12.18;;;15.10;99.90;;;;;;5015877;28;20052;-82
2022/05/17 01:31:07;;;;;;;20.55;11.20;;;15.10;99.90;;;;;;5016975;28;20040;-83
2022/05/17 01:33:36;;;;;;;17.90;11.95;;;15.00;99.90;;;;;;5031936;28;20036;-83
2022/05/17 01:36:04;;;;;;;17.27;11.63;;;15.00;99.90;;;;;;5033075;28;20516;-83
2022/05/17 01:38:30;;;;;;;19.70;11.18;;;15.00;99.90;;;;;;5015263;28;20166;-82
2022/05/17 01:40:56;;;;;;;22.52;11.48;;;14.90;99.90;;;;;;5016857;28;20492;-83
2022/05/17 01:43:22;;;;;;;19.50;11.18;;;14.90;99.90;;;;;;5033084;28;20048;-83
2022/05/17 01:45:48;;;;;;;14.40;7.32;;;14.90;99.90;;;;;;5032622;28;20413;-83
2022/05/17 01:48:13;;;;;;;18.95;10.93;;;14.80;99.90;;;;;;5015900;28;20037;-83
2022/05/17 01:50:39;;;;;;;17.27;8.02;;;14.80;99.90;;;;;;5032497;28;20120;-83
2022/05/17 01:53:05;;;;;;;19.63;11.63;;;14.70;99.90;;;;;;5032695;28;20041;-83
2022/05/17 01:55:31;;;;;;;19.20;11.43;;;14.70;99.90;;;;;;5032177;28;20052;-83
2022/05/17 01:57:56;;;;;;;18.95;8.18;;;14.70;99.90;;;;;;5031598;28;20095;-83
2022/05/17 02:00:23;;;;;;;19.70;11.30;;;14.60;99.90;;;;;;5016458;28;20533;-82
2022/05/17 02:02:53;;;;;;;18.33;8.30;;;14.60;99.90;;;;;;5016444;28;20160;-83
2022/05/17 02:05:21;;;;;;;18.92;10.88;;;14.60;99.90;;;;;;5032762;28;20045;-83
2022/05/17 02:07:48;;;;;;;16.85;8.18;;;14.50;99.90;;;;;;5016091;28;20047;-83
2022/05/17 02:10:14;;;;;;;18.95;10.95;;;14.50;99.90;;;;;;5031650;28;20107;-82
2022/05/17 02:12:40;;;;;;;20.90;11.27;;;14.50;99.90;;;;;;5016036;28;20072;-83
2022/05/17 02:15:07;;;;;;;17.02;7.97;;;14.50;99.90;;;;;;5032076;28;20084;-83
2022/05/17 02:17:35;;;;;;;15.75;8.55;;;14.40;99.90;;;;;;5015356;28;20041;-83
2022/05/17 02:20:01;;;;;;;19.33;11.52;;;14.30;99.90;;;;;;5032077;28;20056;-83
2022/05/17 02:22:26;;;;;;;20.40;9.70;;;14.40;99.90;;;;;;5032153;28;20076;-83
2022/05/17 02:24:52;;;;;;;17.38;7.90;;;14.30;99.90;;;;;;5016004;28;20481;-83
2022/05/17 02:27:18;;;;;;;19.20;11.13;;;14.20;99.90;;;;;;5014992;28;20457;-83
2022/05/17 02:29:44;;;;;;;19.83;8.65;;;14.20;99.90;;;;;;5031849;28;20544;-83
2022/05/17 02:32:09;;;;;;;20.17;12.05;;;14.10;99.90;;;;;;5031406;28;20501;-83
2022/05/17 02:34:36;;;;;;;18.10;8.23;;;14.10;99.90;;;;;;5031886;28;20047;-83
2022/05/17 02:37:03;;;;;;;18.08;11.50;;;14.00;99.90;;;;;;5031877;28;20478;-83
2022/05/17 02:39:29;;;;;;;21.27;12.10;;;14.00;99.90;;;;;;5030789;28;20437;-83
2022/05/17 02:41:54;;;;;;;18.88;12.15;;;14.00;99.90;;;;;;5031216;28;20033;-81
2022/05/17 02:44:20;;;;;;;14.55;8.10;;;14.00;99.90;;;;;;5013650;28;20519;-81
2022/05/17 02:46:46;;;;;;;18.70;11.30;;;13.90;99.90;;;;;;5035329;28;20512;-82
2022/05/17 02:49:12;;;;;;;14.40;7.32;;;13.90;99.90;;;;;;5034707;28;20037;-83
2022/05/17 02:51:38;;;;;;;15.20;7.80;;;13.90;99.90;;;;;;5035160;28;20486;-82
2022/05/17 02:54:06;;;;;;;22.45;11.75;;;13.80;99.90;;;;;;5036107;28;20044;-83
2022/05/17 02:56:32;;;;;;;13.18;7.85;;;13.80;99.90;;;;;;5035744;28;20087;-83
2022/05/17 02:58:58;;;;;;;17.33;7.80;;;13.80;99.90;;;;;;5034531;28;20120;-83
2022/05/17 03:01:24;;;;;;;22.00;9.15;;;13.70;99.90;;;;;;5022590;28;20052;-83
2022/05/17 03:03:49;;;;;;;18.00;8.55;;;13.70;99.90;;;;;;5036396;28;20055;-83
2022/05/17 03:06:15;;;;;;;15.50;8.63;;;13.60;99.90;;;;;;5024492;28;20036;-82
2022/05/17 03:08:40;;;;;;;21.90;12.90;;;13.60;99.90;;;;;;5017499;28;20037;-82
2022/05/17 03:11:06;;;;;;;22.48;12.82;;;13.60;99.90;;;;;;5035102;28;20150;-83
2022/05/17 03:13:33;;;;;;;18.10;8.75;;;13.60;99.90;;;;;;5018075;28;20065;-83
2022/05/17 03:15:58;;;;;;;17.42;7.57;;;13.60;99.90;;;;;;5035191;28;20047;-83
2022/05/17 03:18:24;;;;;;;22.58;12.48;;;13.50;99.90;;;;;;5032321;28;20037;-82
2022/05/17 03:20:50;;;;;;;18.80;8.57;;;13.50;99.90;;;;;;5018673;28;20037;-82
2022/05/17 03:23:16;;;;;;;17.25;8.38;;;13.50;99.90;;;;;;5035245;28;20033;-83
2022/05/17 03:25:42;;;;;;;16.05;9.30;;;13.40;99.90;;;;;;5034373;28;20098;-83
2022/05/17 03:28:10;;;;;;;17.15;8.60;;;13.40;99.90;;;;;;5017859;28;20041;-83
2022/05/17 03:30:35;;;;;;;22.77;12.88;;;13.40;99.90;;;;;;5018217;28;20124;-83
2022/05/17 03:33:01;;;;;;;21.85;9.55;;;13.40;99.90;;;;;;5034006;28;20120;-83
2022/05/17 03:35:26;;;;;;;19.65;8.43;;;13.30;99.90;;;;;;5034604;28;20089;-83
2022/05/17 03:37:52;;;;;;;20.67;8.57;;;13.30;99.90;;;;;;5033631;28;20087;-83
2022/05/17 03:40:18;;;;;;;18.25;8.43;;;13.20;99.90;;;;;;5033960;28;20052;-83
2022/05/17 03:42:44;;;;;;;19.02;12.15;;;13.20;99.90;;;;;;5035513;28;20556;-84
2022/05/17 03:45:10;;;;;;;16.92;7.65;;;13.20;99.90;;;;;;5034578;28;20128;-84
2022/05/17 03:47:36;;;;;;;18.52;8.52;;;13.20;99.90;;;;;;5034332;28;20041;-83
2022/05/17 03:50:03;;;;;;;20.17;9.00;;;13.20;99.90;;;;;;5034069;28;20120;-83
2022/05/17 03:52:31;;;;;;;24.05;9.18;;;13.20;99.90;;;;;;5034686;28;20125;-83
2022/05/17 03:54:58;;;;;;;19.55;8.55;;;13.20;99.90;;;;;;5017777;28;20045;-83
2022/05/17 03:57:25;;;;;;;19.13;12.80;;;13.20;99.90;;;;;;5033352;28;20045;-83
2022/05/17 03:59:51;;;;;;;23.92;12.73;;;13.20;99.90;;;;;;5034175;28;20494;-83
2022/05/17 04:02:17;;;;;;;19.77;8.75;;;13.30;99.90;;;;;;5034515;28;20048;-83
2022/05/17 04:04:43;;;;;;;16.85;8.63;;;13.30;99.90;;;;;;5034753;28;20125;-83
2022/05/17 04:07:09;;;;;;;19.40;9.57;;;13.20;99.90;;;;;;5034082;28;20041;-83
2022/05/17 04:09:34;;;;;;;16.52;9.00;;;13.20;99.90;;;;;;5017609;28;20099;-82
2022/05/17 04:12:00;;;;;;;20.38;12.68;;;13.30;99.90;;;;;;5034516;28;20406;-82
2022/05/17 04:14:26;;;;;;;20.20;9.57;;;13.30;99.90;;;;;;5034113;28;20490;-83
2022/05/17 04:16:52;;;;;;;17.65;9.15;;;13.30;99.90;;;;;;5034300;28;20044;-83
2022/05/17 04:19:17;;;;;;;26.38;13.75;;;13.40;99.90;;;;;;5016275;28;20049;-83
2022/05/17 04:21:44;;;;;;;20.27;8.68;;;13.40;99.90;;;;;;5052119;28;20061;-83
2022/05/17 04:24:11;;;;;;;17.33;9.35;;;13.50;99.90;;;;;;5034476;28;20481;-82
2022/05/17 04:26:37;;;;;;;25.08;12.90;;;13.40;99.90;;;;;;5017075;28;20041;-83
2022/05/17 04:29:04;;;;;;;22.13;8.57;;;13.50;99.90;;;;;;5033729;28;20512;-83
2022/05/17 04:31:30;;;;;;;22.27;9.70;;;13.50;99.90;;;;;;5033573;28;20044;-83
2022/05/17 04:33:56;;;;;;;20.80;13.27;;;13.50;99.90;;;;;;5034463;28;20080;-83
2022/05/17 04:36:22;;;;;;;17.90;9.52;;;13.60;99.90;;;;;;5033613;28;20064;-83
2022/05/17 04:38:48;;;;;;;17.15;8.40;;;13.70;99.90;;;;;;5032115;28;20045;-83
2022/05/17 04:41:14;;;;;;;22.08;12.52;;;13.70;99.90;;;;;;5032100;28;20064;-83
2022/05/17 04:43:40;;;;;;;20.77;13.00;;;13.80;99.90;;;;;;5016600;28;20117;-83
2022/05/17 04:46:08;;;;;;;17.13;8.65;;;13.90;99.90;;;;;;5033333;28;20079;-82
2022/05/17 04:48:34;;;;;;;19.77;9.30;;;13.90;99.90;;;;;;5032606;28;20088;-83
2022/05/17 04:51:04;;;;;;;20.02;12.38;;;13.90;99.90;;;;;;5032364;28;20033;-82
2022/05/17 04:53:30;;;;;;;23.88;8.93;;;14.00;99.90;;;;;;5016330;28;20029;-83
2022/05/17 04:55:56;;;;;;;19.30;12.02;;;14.00;99.90;;;;;;5016281;28;20052;-83
2022/05/17 04:58:22;;;;;;;23.45;9.32;;;14.10;99.90;;;;;;5031276;28;20037;-82
2022/05/17 05:00:48;;;;;;;21.30;12.45;;;14.20;99.90;;;;;;5032810;28;20461;-83
2022/05/17 05:03:14;;;;;;;15.27;7.75;;;14.30;99.90;;;;;;5016937;28;20052;-82
2022/05/17 05:05:40;;;;;;;21.70;8.95;;;14.30;99.90;;;;;;5032328;28;20041;-83
2022/05/17 05:08:06;;;;;;;17.92;11.35;;;14.40;99.90;;;;;;5015725;28;20043;-82
2022/05/17 05:10:32;;;;;;;16.73;11.45;;;14.50;99.90;;;;;;5032854;28;20037;-83
2022/05/17 05:12:57;;;;;;;20.63;10.88;;;14.60;99.90;;;;;;5016992;28;20041;-83
2022/05/17 05:15:24;;;;;;;15.45;8.13;;;14.60;99.90;;;;;;5033033;28;20448;-83
2022/05/17 05:17:50;;;;;;;19.25;10.73;;;14.70;99.90;;;;;;5015366;28;20570;-82
2022/05/17 05:20:16;;;;;;;20.23;8.57;;;14.80;99.90;;;;;;5032469;28;20131;-83
2022/05/17 05:22:42;;;;;;;19.33;11.50;;;14.80;99.90;;;;;;5032173;28;20119;-83
2022/05/17 05:25:08;;;;;;;16.13;7.93;;;14.80;99.90;;;;;;5016213;28;20090;-82
2022/05/17 05:27:36;;;;;;;18.33;11.25;;;14.90;99.90;;;;;;5015593;28;20029;-83
2022/05/17 05:30:04;;;;;;;16.95;7.97;;;14.90;99.90;;;;;;5015894;28;20033;-83
2022/05/17 05:32:29;;;;;;;21.05;9.32;;;14.90;99.90;;;;;;5016440;28;20044;-83
2022/05/17 05:34:55;;;;;;;19.48;10.98;;;14.90;99.90;;;;;;5032734;28;20095;-82
2022/05/17 05:37:20;;;;;;;16.48;8.45;;;14.90;99.90;;;;;;5032605;28;20464;-82
2022/05/17 05:39:46;;;;;;;18.42;11.05;;;15.00;99.90;;;;;;5031901;28;20121;-82
2022/05/17 05:42:11;;;;;;;19.85;10.95;;;15.10;99.90;;;;;;5032034;28;20045;-82
2022/05/17 05:44:37;;;;;;;17.73;8.38;;;15.20;99.90;;;;;;5032996;28;20041;-83
2022/05/17 05:47:03;;;;;;;17.83;10.25;;;15.20;99.90;;;;;;5015888;28;20037;-81
2022/05/17 05:49:28;;;;;;;17.52;8.30;;;15.30;99.90;;;;;;5032257;28;20075;-82
2022/05/17 05:51:54;;;;;;;17.98;9.98;;;15.40;99.90;;;;;;5032833;28;20127;-82
2022/05/17 05:54:20;;;;;;;17.95;10.63;;;15.50;99.90;;;;;;5030730;28;20033;-83
2022/05/17 05:56:45;;;;;;;16.35;7.75;;;15.60;99.90;;;;;;5014922;28;20166;-82
2022/05/17 05:59:11;;;;;;;19.63;10.10;;;15.60;99.90;;;;;;5014568;28;20089;-83
2022/05/17 06:01:39;;;;;;;17.35;9.40;;;15.70;99.90;;;;;;5031741;28;20055;-83
2022/05/17 06:04:05;;;;;;;18.10;9.45;;;15.80;99.90;;;;;;5032633;28;20050;-83
2022/05/17 06:06:31;;;;;;;17.50;9.75;;;15.90;99.90;;;;;;5031189;28;20040;-82
2022/05/17 06:08:57;;;;;;;17.35;8.80;;;15.90;99.90;;;;;;5031689;28;20041;-82
2022/05/17 06:11:22;;;;;;;19.20;10.02;;;15.90;99.90;;;;;;5015208;28;20037;-83
2022/05/17 06:13:48;;;;;;;16.30;8.50;;;15.90;99.90;;;;;;5031770;28;20033;-83
2022/05/17 06:16:15;;;;;;;14.70;9.18;;;16.00;99.90;;;;;;5015561;28;20045;-83
2022/05/17 06:18:41;;;;;;;18.05;7.93;;;16.00;99.90;;;;;;5030956;28;20406;-82
2022/05/17 06:21:08;;;;;;;18.48;9.55;;;16.10;99.90;;;;;;5019492;28;20510;-82
2022/05/17 06:23:35;;;;;;;17.42;9.63;;;16.10;99.90;;;;;;5019494;28;20037;-83
2022/05/17 06:26:00;;;;;;;19.15;9.10;;;16.20;99.90;;;;;;5019756;28;20132;-83
2022/05/17 06:28:26;;;;;;;18.60;7.88;;;16.30;99.90;;;;;;5035510;28;20131;-84
2022/05/17 06:30:52;;;;;;;16.90;8.85;;;16.30;99.90;;;;;;5018533;28;20128;-84
2022/05/17 06:33:17;;;;;;;18.05;9.55;;;16.30;99.90;;;;;;5035746;28;20102;-83
2022/05/17 06:35:45;;;;;;;17.45;7.80;;;16.50;99.90;;;;;;5035114;28;20481;-83
2022/05/17 06:38:11;;;;;;;19.67;7.47;;;16.50;99.90;;;;;;5035329;28;20119;-83
2022/05/17 06:40:37;;;;;;;17.10;9.05;;;16.50;99.90;;;;;;5035967;28;20124;-83
2022/05/17 06:43:04;;;;;;;15.63;8.25;;;16.50;99.90;;;;;;5036041;28;20414;-83
2022/05/17 06:45:30;;;;;;;18.10;8.10;;;16.60;99.90;;;;;;5036564;28;20041;-84
2022/05/17 06:47:56;;;;;;;17.38;7.25;;;16.60;99.90;;;;;;5019265;28;20044;-83
2022/05/17 06:50:22;;;;;;;15.30;7.97;;;16.60;99.90;;;;;;5017084;28;20037;-84
2022/05/17 06:52:48;;;;;;;18.23;8.15;;;16.60;99.90;;;;;;5019668;28;20052;-84
2022/05/17 06:55:14;;;;;;;18.05;8.82;;;16.70;99.90;;;;;;5035606;28;20059;-83
2022/05/17 06:57:40;;;;;;;16.58;8.82;;;16.80;99.90;;;;;;5035062;28;20044;-82
2022/05/17 07:00:08;;;;;;;18.25;8.60;;;16.90;99.90;;;;;;5035244;28;20395;-83
2022/05/17 07:02:35;;;;;;;18.52;9.80;;;17.00;99.90;;;;;;5018936;28;20037;-83
2022/05/17 07:05:00;;;;;;;15.77;7.65;;;17.10;99.90;;;;;;5036187;28;20415;-83
2022/05/17 07:07:26;;;;;;;15.07;7.95;;;17.10;99.90;;;;;;5037649;28;20521;-83
2022/05/17 07:15:21;;;;;;;17.88;8.20;;;17.30;99.90;;;;;;5035210;28;20049;-83
2022/05/17 07:17:47;;;;;;;14.57;7.30;;;17.40;99.90;;;;;;5018211;28;20045;-83
2022/05/17 07:20:14;;;;;;;14.55;8.18;;;17.50;99.90;;;;;;5034399;28;20033;-83
2022/05/17 07:22:40;;;;;;;16.55;8.43;;;17.50;99.90;;;;;;5018889;28;20037;-83
2022/05/17 07:25:07;;;;;;;18.33;9.25;;;17.60;99.90;;;;;;5018424;28;20402;-82
2022/05/17 07:27:32;;;;;;;16.95;8.82;;;17.70;99.90;;;;;;5035266;28;20521;-82
2022/05/17 07:29:58;;;;;;;15.38;8.02;;;17.70;99.90;;;;;;5034833;28;20041;-83
2022/05/17 07:32:24;;;;;;;15.43;9.25;;;17.70;99.90;;;;;;5033869;28;20036;-83
2022/05/17 07:34:49;;;;;;;16.73;8.02;;;17.80;99.90;;;;;;5035173;28;20045;-83
2022/05/17 07:37:15;;;;;;;15.00;7.00;;;17.90;99.90;;;;;;5034389;28;20041;-83
2022/05/17 07:39:41;;;;;;;15.75;8.00;;;18.00;99.90;;;;;;5034077;28;20490;-83
2022/05/17 07:42:07;;;;;;;18.30;8.57;;;18.00;99.90;;;;;;5035207;28;20048;-83
2022/05/17 07:44:34;;;;;;;15.68;7.15;;;18.10;99.90;;;;;;5035255;28;20502;-83
2022/05/17 07:47:00;;;;;;;15.40;7.72;;;18.20;99.90;;;;;;5019198;28;20084;-83
2022/05/17 07:49:26;;;;;;;16.70;7.80;;;18.20;99.90;;;;;;5018034;28;20068;-83
2022/05/17 07:51:52;;;;;;;17.33;7.85;;;18.20;99.90;;;;;;5034130;28;20059;-83
2022/05/17 07:54:18;;;;;;;17.23;6.88;;;18.20;99.90;;;;;;5018361;28;20103;-84
2022/05/17 07:56:44;;;;;;;14.88;7.05;;;18.20;99.90;;;;;;5017861;28;20494;-84
2022/05/17 07:59:09;;;;;;;13.85;6.78;;;18.30;99.90;;;;;;5033819;28;20033;-83
2022/05/17 08:01:35;;;;;;;21.70;8.20;;;18.40;99.90;;;;;;5033878;28;20037;-83
2022/05/17 08:04:00;;;;;;;17.98;7.80;;;18.40;99.90;;;;;;5034431;28;20044;-84
2022/05/17 08:06:26;;;;;;;16.55;8.10;;;18.50;99.90;;;;;;5034518;28;20041;-83
2022/05/17 08:08:52;;;;;;;17.63;8.20;;;18.60;99.90;;;;;;5033123;28;20033;-84
2022/05/17 08:11:17;;;;;;;16.20;7.70;;;18.60;99.90;;;;;;5034154;28;20041;-83
2022/05/17 08:13:43;;;;;;;18.80;7.45;;;18.60;99.90;;;;;;5033052;28;20052;-84
2022/05/17 08:16:09;;;;;;;16.50;7.53;;;18.70;99.90;;;;;;5017825;28;20086;-84
2022/05/17 08:18:34;;;;;;;16.42;7.45;;;18.80;99.90;;;;;;5033132;28;20112;-83
2022/05/17 08:21:00;;;;;;;19.23;7.38;;;18.80;99.90;;;;;;5016417;28;20041;-83
2022/05/17 08:23:26;;;;;;;16.63;7.65;;;18.90;99.90;;;;;;5017912;28;20503;-83
2022/05/17 08:28:35;;;;;;;15.63;6.82;;;19.00;99.90;;;;;;5033908;28;20509;-83
2022/05/17 08:31:01;;;;;;;13.85;6.72;;;19.00;99.90;;;;;;5016862;28;20068;-83
2022/05/17 08:33:27;;;;;;;16.17;6.95;;;19.10;99.90;;;;;;5016018;28;20037;-83
2022/05/17 08:36:05;;;;;;;14.57;6.70;;;19.10;99.90;;;;;;5033574;28;20040;-84
2022/05/17 08:38:40;;;;;;;14.02;6.95;;;19.20;99.90;;;;;;5030359;28;20076;-84
2022/05/17 08:41:23;;;;;;;17.13;7.22;;;19.20;99.90;;;;;;5033137;28;20136;-84
2022/05/17 08:43:51;;;;;;;16.70;6.65;;;19.30;99.90;;;;;;5013864;28;20383;-84
2022/05/17 08:46:27;;;;;;;13.50;6.03;;;19.40;99.90;;;;;;5033613;28;20041;-84
2022/05/17 08:49:04;;;;;;;15.90;5.90;;;19.50;99.90;;;;;;5016363;28;20067;-84
2022/05/17 08:52:00;;;;;;;18.05;6.25;;;19.60;99.90;;;;;;5017075;28;20045;-84
2022/05/17 08:54:30;;;;;;;14.82;6.28;;;19.70;99.90;;;;;;5032998;28;20048;-84
2022/05/17 08:57:13;;;;;;;14.30;6.32;;;19.70;99.90;;;;;;5033289;28;20048;-84
2022/05/17 08:59:41;;;;;;;16.02;6.18;;;19.80;99.90;;;;;;5032670;28;20123;-84
2022/05/17 09:02:12;;;;;;;15.40;5.68;;;19.80;99.90;;;;;;5016437;28;20041;-84
2022/05/17 09:05:03;;;;;;;13.73;6.07;;;19.80;99.90;;;;;;5016909;28;20044;-84
2022/05/17 09:07:41;;;;;;;14.07;5.53;;;20.00;99.90;;;;;;5014811;28;20055;-84
2022/05/17 09:10:18;;;;;;;14.07;4.70;;;20.10;99.90;;;;;;5032313;28;20044;-84
2022/05/17 09:12:53;;;;;;;12.13;4.90;;;20.10;99.90;;;;;;5014282;28;20072;-84
2022/05/17 09:15:19;;;;;;;13.27;5.18;;;20.20;99.90;;;;;;5031368;28;20098;-84
2022/05/17 09:17:46;;;;;;;11.52;4.95;;;20.20;99.90;;;;;;5030353;28;20044;-84
2022/05/17 09:20:16;;;;;;;14.23;5.68;;;20.30;99.90;;;;;;5029878;28;20497;-84
2022/05/17 09:22:42;;;;;;;12.70;5.38;;;20.30;99.90;;;;;;5014155;28;20041;-84
2022/05/17 09:25:20;;;;;;;15.65;5.70;;;20.30;99.90;;;;;;5031094;28;20102;-84
2022/05/17 09:27:49;;;;;;;14.07;4.90;;;20.20;99.90;;;;;;5030825;28;20119;-84
2022/05/17 09:30:21;;;;;;;13.85;4.57;;;20.30;99.90;;;;;;5032552;28;20037;-84
2022/05/17 09:32:47;;;;;;;15.40;5.53;;;20.40;99.90;;;;;;5029648;28;20034;-84
2022/05/17 09:35:20;;;;;;;15.07;4.85;;;20.40;99.90;;;;;;5029897;28;20037;-84
2022/05/17 09:37:50;;;;;;;10.57;3.58;;;20.60;99.90;;;;;;5031821;28;20353;-83
2022/05/17 09:40:26;;;;;;;11.85;3.58;;;20.70;99.90;;;;;;5030622;28;20449;-84
2022/05/17 09:42:58;;;;;;;13.75;3.50;;;20.80;99.90;;;;;;5031654;28;20075;-84
2022/05/17 09:45:39;;;;;;;12.10;3.17;;;20.90;99.90;;;;;;5031772;28;20045;-84
2022/05/17 09:48:09;;;;;;;12.07;3.25;;;21.00;99.90;;;;;;5031956;28;20033;-84
2022/05/17 09:53:48;;;;;;;12.23;3.83;;;21.20;98.00;;;;;;5028455;28;20494;-84
2022/05/17 09:56:16;;;;;;;10.18;2.90;;;21.20;98.70;;;;;;5039405;28;20122;-84
2022/05/17 09:58:44;;;;;;;12.52;3.13;;;21.30;96.70;;;;;;5028883;28;20033;-83
2022/05/17 10:01:21;;;;;;;13.30;2.97;;;21.30;96.70;;;;;;5014873;28;20044;-84
2022/05/17 10:04:03;;;;;;;13.70;3.20;;;21.30;98.50;;;;;;5012419;28;20033;-84
2022/05/17 10:06:38;;;;;;;9.55;2.67;;;21.40;99.90;;;;;;5030440;28;20076;-84
2022/05/17 10:09:10;;;;;;;14.48;3.40;;;21.50;99.90;;;;;;5029329;28;20045;-83
2022/05/17 10:12:00;;;;;;;11.45;3.05;;;21.60;99.20;;;;;;5032487;28;20033;-83
2022/05/17 10:14:33;;;;;;;11.18;3.10;;;21.70;99.90;;;;;;5031954;28;20036;-83
2022/05/17 10:17:14;;;;;;;12.25;3.40;;;21.80;99.60;;;;;;5032581;28;20059;-84
2022/05/17 10:19:53;;;;;;;12.52;3.33;;;21.90;99.80;;;;;;5031453;28;20045;-83
2022/05/17 10:22:36;;;;;;;11.20;3.17;;;21.90;96.90;;;;;;5031439;28;20037;-84
2022/05/17 10:25:27;;;;;;;13.38;3.58;;;21.70;96.10;;;;;;5012764;28;20049;-84
2022/05/17 10:28:00;;;;;;;10.38;3.13;;;21.70;97.50;;;;;;5027161;28;20041;-83
2022/05/17 10:30:33;;;;;;;13.77;3.72;;;21.70;99.90;;;;;;5016443;28;20393;-84
2022/05/17 10:33:06;;;;;;;12.27;3.55;;;21.80;99.10;;;;;;5015126;28;20047;-83
2022/05/17 10:35:58;;;;;;;12.27;3.63;;;21.90;99.10;;;;;;5012208;28;20128;-83
2022/05/17 10:38:32;;;;;;;11.18;3.28;;;22.00;99.90;;;;;;4995705;28;20049;-83
2022/05/17 10:40:58;;;;;;;13.10;3.67;;;22.20;99.40;;;;;;5015118;28;20059;-83
2022/05/17 10:43:31;;;;;;;12.32;3.70;;;22.20;98.60;;;;;;5016231;28;20128;-83
2022/05/17 10:46:17;;;;;;;12.70;3.72;;;22.30;98.40;;;;;;5015253;28;20509;-83
2022/05/17 10:48:58;;;;;;;12.30;3.30;;;22.20;96.10;;;;;;5015136;28;20037;-83
2022/05/17 10:51:51;;;;;;;12.63;3.58;;;22.10;95.70;;;;;;5031345;28;20037;-84
2022/05/17 10:54:36;;;;;;;11.95;3.58;;;21.90;94.90;;;;;;5031609;28;20043;-83
2022/05/17 10:57:26;;;;;;;13.07;4.68;;;21.80;98.00;;;;;;5015160;28;20121;-83
2022/05/17 11:00:24;;;;;;;15.23;5.30;;;21.70;99.90;;;;;;5014947;28;20325;-84
2022/05/17 11:03:07;;;;;;;15.95;5.20;;;21.60;99.80;;;;;;4971687;28;20067;-84
2022/05/17 11:05:34;;;;;;;17.60;8.10;;;21.60;99.90;;;;;;4978044;28;20054;-84
2022/05/17 11:08:20;;;;;;;16.35;7.60;;;21.60;99.90;;;;;;4974986;28;20051;-84
2022/05/17 11:10:57;;;;;;;14.38;7.70;;;21.70;99.90;;;;;;4974674;28;20049;-84
2022/05/17 11:13:28;;;;;;;15.25;7.38;;;21.70;99.90;;;;;;4973279;28;20189;-84
2022/05/17 11:16:03;;;;;;;14.73;6.50;;;21.60;99.90;;;;;;4964881;28;20050;-83
2022/05/17 11:18:46;;;;;;;17.85;7.70;;;21.60;99.90;;;;;;4963723;28;20395;-83
2022/05/17 11:21:27;;;;;;;16.38;7.68;;;21.50;99.90;;;;;;4983857;28;20508;-83
2022/05/17 11:24:14;;;;;;;15.30;8.03;;;21.40;99.90;;;;;;4970835;28;20050;-83
2022/05/17 11:26:57;;;;;;;14.10;7.35;;;21.30;99.90;;;;;;4969732;28;20051;-83
2022/05/17 11:30:05;;;;;;;17.15;6.20;;;21.20;99.90;;;;;;4966959;28;20731;-83
2022/05/17 11:32:33;;;;;;;13.60;6.45;;;21.20;99.90;;;;;;4969442;28;20411;-83
2022/05/17 11:35:24;;;;;;;15.18;6.32;;;21.20;99.90;;;;;;4981102;28;20046;-83
2022/05/17 11:37:51;;;;;;;16.42;7.13;;;21.10;99.90;;;;;;4974264;28;20061;-84
2022/05/17 11:40:47;;;;;;;17.50;7.10;;;21.00;99.90;;;;;;5008072;28;20383;-83
2022/05/17 11:46:03;;;;;;;14.05;6.90;;;21.00;99.90;;;;;;5034949;28;20107;-84
2022/05/17 11:49:11;;;;;;;14.63;5.72;;;20.90;99.90;;;;;;5015247;28;20448;-83
2022/05/17 11:51:39;;;;;;;14.68;6.43;;;21.00;99.90;;;;;;5035174;28;20041;-84
2022/05/17 11:54:10;;;;;;;16.88;7.25;;;21.00;99.90;;;;;;5033516;28;20037;-84
2022/05/17 11:56:38;;;;;;;17.95;7.35;;;21.10;99.90;;;;;;5034651;28;20056;-84
2022/05/17 11:59:12;;;;;;;16.08;6.80;;;21.20;99.90;;;;;;5017483;28;20223;-83
2022/05/17 12:01:37;;;;;;;13.77;6.07;;;21.30;99.90;;;;;;5034339;28;20240;-83
2022/05/17 12:04:03;;;;;;;15.20;6.53;;;21.30;99.90;;;;;;5034566;28;20567;-83
2022/05/17 12:06:39;;;;;;;14.27;6.65;;;21.30;99.90;;;;;;5018043;28;20506;-84
2022/05/17 12:09:11;;;;;;;17.25;7.05;;;21.40;99.90;;;;;;5017528;28;20037;-84
2022/05/17 12:12:11;;;;;;;15.75;8.07;;;21.40;99.90;;;;;;5017122;28;20033;-84
2022/05/17 12:14:36;;;;;;;16.67;7.72;;;21.40;99.90;;;;;;5034171;28;20517;-84
2022/05/17 12:17:17;;;;;;;14.30;6.75;;;21.40;99.90;;;;;;5016248;28;20083;-84
2022/05/17 12:20:05;;;;;;;14.73;6.43;;;21.40;99.90;;;;;;5016815;28;20040;-84
2022/05/17 12:22:41;;;;;;;13.90;6.35;;;21.50;99.90;;;;;;5017156;28;20033;-84
2022/05/17 12:25:20;;;;;;;17.23;7.10;;;21.40;99.90;;;;;;5033924;28;20076;-84
2022/05/17 12:27:47;;;;;;;14.48;6.55;;;21.40;99.90;;;;;;5014655;28;20037;-84
2022/05/17 12:33:12;;;;;;;12.63;6.53;;;21.40;99.90;;;;;;5030973;28;20402;-84
2022/05/17 12:35:38;;;;;;;14.77;5.70;;;21.40;99.90;;;;;;5030328;28;20051;-84
2022/05/17 12:43:02;;;;;;;15.90;6.43;;;21.40;99.90;;;;;;5029792;28;20122;-84
2022/05/17 12:43:44;;;;;;;14.45;5.90;;;21.40;99.90;;;;;;5033516;28;20429;-84
2022/05/17 12:46:21;;;;;;;14.43;6.25;;;21.30;99.90;;;;;;5031938;28;20041;-84
2022/05/17 12:48:49;;;;;;;13.70;6.78;;;21.30;99.90;;;;;;5033661;28;20032;-84
2022/05/17 12:51:21;;;;;;;13.48;5.45;;;21.30;99.90;;;;;;5031313;28;20043;-84
2022/05/17 12:53:50;;;;;;;13.73;5.63;;;21.40;99.90;;;;;;5032859;28;20041;-84
2022/05/17 12:56:16;;;;;;;14.02;5.90;;;21.40;99.90;;;;;;5033726;28;20040;-84
2022/05/17 12:59:01;;;;;;;16.15;5.75;;;21.40;99.90;;;;;;5015976;28;20035;-84
2022/05/17 13:01:52;;;;;;;12.70;5.13;;;21.40;99.90;;;;;;4997180;28;20034;-84
2022/05/17 13:04:24;;;;;;;13.98;5.35;;;21.40;99.90;;;;;;5016916;28;20512;-84
2022/05/17 13:06:51;;;;;;;10.88;4.30;;;21.50;99.90;;;;;;5016993;28;20624;-84
2022/05/17 13:09:25;;;;;;;13.77;4.78;;;21.60;99.90;;;;;;5032309;28;20041;-84